createdAt,value
2017-05-05T00:00:01.342Z,92.6
2017-05-05T00:01:03.174Z,92.8
2017-05-05T00:02:05.011Z,93.1
2017-05-05T00:03:06.849Z,93.4
2017-05-05T00:04:08.696Z,93.8
2017-05-05T00:05:10.533Z,94.3
2017-05-05T00:06:12.381Z,94
2017-05-05T00:07:14.563Z,94.1
2017-05-05T00:08:16.404Z,93.8
2017-05-05T00:09:18.253Z,93.3
2017-05-05T00:10:20.089Z,94.1
2017-05-05T00:11:21.952Z,93.8
2017-05-05T00:12:23.793Z,93.7
2017-05-05T00:13:25.632Z,93.9
2017-05-05T00:14:27.473Z,93.9
2017-05-05T00:15:29.308Z,93.4
2017-05-05T00:16:31.151Z,93.3
2017-05-05T00:17:32.991Z,93.9
2017-05-05T00:18:35.184Z,94.2
2017-05-05T00:19:37.022Z,94.3
2017-05-05T00:20:38.860Z,95.1
2017-05-05T00:21:40.698Z,95.1
2017-05-05T00:22:42.545Z,95.4
2017-05-05T00:23:44.390Z,95.1
2017-05-05T00:24:46.229Z,95.3
2017-05-05T00:25:48.418Z,94.8
2017-05-05T00:26:50.615Z,94.2
2017-05-05T00:27:52.452Z,93.9
2017-05-05T00:28:54.638Z,93.8
2017-05-05T00:29:56.485Z,94
2017-05-05T00:30:58.329Z,94.3
2017-05-05T00:32:00.852Z,94.3
2017-05-05T00:33:03.032Z,94.1
2017-05-05T00:34:04.867Z,93.6
2017-05-05T00:35:06.704Z,93.5
2017-05-05T00:36:08.546Z,93
2017-05-05T00:37:10.388Z,93.3
2017-05-05T00:38:12.221Z,94.1
2017-05-05T00:39:14.065Z,94.6
2017-05-05T00:40:15.903Z,94.3
2017-05-05T00:41:17.761Z,94.2
2017-05-05T00:42:19.603Z,94
2017-05-05T00:43:21.450Z,94.1
2017-05-05T00:44:23.288Z,93.7
2017-05-05T00:45:25.124Z,94
2017-05-05T00:46:26.970Z,93.9
2017-05-05T00:47:28.813Z,94.7
2017-05-05T00:48:30.648Z,94.7
2017-05-05T00:49:32.496Z,94.3
2017-05-05T00:50:34.340Z,93.8
2017-05-05T00:51:36.179Z,93.8
2017-05-05T00:52:38.365Z,93.8
2017-05-05T00:53:40.546Z,93.8
2017-05-05T00:54:42.388Z,94.4
2017-05-05T00:55:44.230Z,94.8
2017-05-05T00:56:46.066Z,93.8
2017-05-05T00:57:48.256Z,93.8
2017-05-05T00:58:50.099Z,94.6
2017-05-05T00:59:51.953Z,94.4
2017-05-05T01:00:53.806Z,94.6
2017-05-05T01:01:55.648Z,94.7
2017-05-05T01:02:57.489Z,94.3
2017-05-05T01:03:59.345Z,94
2017-05-05T01:05:01.182Z,94
2017-05-05T01:06:03.027Z,94.7
2017-05-05T01:07:04.873Z,94.4
2017-05-05T01:08:06.723Z,93.8
2017-05-05T01:09:08.561Z,94.2
2017-05-05T01:10:10.403Z,94.2
2017-05-05T01:11:12.577Z,94.4
2017-05-05T01:12:14.414Z,94.4
2017-05-05T01:13:16.251Z,94.2
2017-05-05T01:14:18.102Z,94.4
2017-05-05T01:15:20.304Z,94.2
2017-05-05T01:16:22.142Z,94.3
2017-05-05T01:17:23.986Z,94.5
2017-05-05T01:18:25.825Z,94.5
2017-05-05T01:19:28.012Z,94.2
2017-05-05T01:20:29.858Z,94.8
2017-05-05T01:21:31.701Z,95.6
2017-05-05T01:22:33.545Z,95.6
2017-05-05T01:23:35.380Z,95.5
2017-05-05T01:24:37.216Z,95.4
2017-05-05T01:25:39.051Z,95.5
2017-05-05T01:26:40.887Z,95.5
2017-05-05T01:27:43.406Z,95.5
2017-05-05T01:28:45.244Z,95.7
2017-05-05T01:29:47.095Z,95.1
2017-05-05T01:30:48.935Z,95.8
2017-05-05T01:31:50.778Z,95.7
2017-05-05T01:32:52.615Z,95.7
2017-05-05T01:33:54.456Z,95.4
2017-05-05T01:34:56.289Z,95.1
2017-05-05T01:35:58.140Z,94.9
2017-05-05T01:36:59.981Z,95.1
2017-05-05T01:38:01.826Z,95.4
2017-05-05T01:39:03.660Z,95.5
2017-05-05T01:40:05.843Z,95.6
2017-05-05T01:41:07.686Z,95.6
2017-05-05T01:42:09.862Z,95.6
2017-05-05T01:43:11.709Z,95.2
2017-05-05T01:44:13.545Z,95.3
2017-05-05T01:45:15.405Z,94.8
2017-05-05T01:46:17.244Z,94.8
2017-05-05T01:47:19.425Z,95.2
2017-05-05T01:48:21.267Z,95.2
2017-05-05T01:49:23.449Z,95.1
2017-05-05T01:50:25.294Z,94.8
2017-05-05T01:51:27.126Z,94.6
2017-05-05T01:52:28.968Z,95.1
2017-05-05T01:53:30.803Z,95.7
2017-05-05T01:54:32.640Z,95.4
2017-05-05T01:55:34.483Z,95.8
2017-05-05T01:56:36.319Z,95.1
2017-05-05T01:57:38.159Z,95
2017-05-05T01:58:40.005Z,94.8
2017-05-05T01:59:42.193Z,95.9
2017-05-05T02:00:44.034Z,95.6
2017-05-05T02:01:45.885Z,95.3
2017-05-05T02:02:47.743Z,94.9
2017-05-05T02:03:49.581Z,95.2
2017-05-05T02:04:51.425Z,95.3
2017-05-05T02:05:53.256Z,95.4
2017-05-05T02:06:55.103Z,95.2
2017-05-05T02:07:56.950Z,95.4
2017-05-05T02:08:59.139Z,96.1
2017-05-05T02:10:00.995Z,96.1
2017-05-05T02:11:02.840Z,95.4
2017-05-05T02:12:04.691Z,95
2017-05-05T02:13:06.867Z,95.1
2017-05-05T02:14:08.714Z,95.3
2017-05-05T02:15:10.551Z,95.6
2017-05-05T02:16:12.392Z,95.7
2017-05-05T02:17:14.235Z,95
2017-05-05T02:18:16.075Z,95
2017-05-05T02:19:17.913Z,95.4
2017-05-05T02:20:19.750Z,95.5
2017-05-05T02:21:21.594Z,95
2017-05-05T02:22:23.434Z,95.1
2017-05-05T02:23:25.279Z,95
2017-05-05T02:24:27.124Z,94.3
2017-05-05T02:25:28.971Z,94.1
2017-05-05T02:26:30.812Z,94
2017-05-05T02:27:32.651Z,94.5
2017-05-05T02:28:34.843Z,94.7
2017-05-05T02:29:36.693Z,95.1
2017-05-05T02:30:38.526Z,94.9
2017-05-05T02:31:40.364Z,94.9
2017-05-05T02:32:42.203Z,94.7
2017-05-05T02:33:44.415Z,95.4
2017-05-05T02:34:46.592Z,95.8
2017-05-05T02:35:48.432Z,95.2
2017-05-05T02:36:50.267Z,94.7
2017-05-05T02:37:52.106Z,94.7
2017-05-05T02:38:53.942Z,94.1
2017-05-05T02:39:55.780Z,95.1
2017-05-05T02:40:57.650Z,94.7
2017-05-05T02:41:59.836Z,95.3
2017-05-05T02:43:02.011Z,95.9
2017-05-05T02:44:03.850Z,95.2
2017-05-05T02:45:05.688Z,95.5
2017-05-05T02:46:07.532Z,95.5
2017-05-05T02:47:09.372Z,95.5
2017-05-05T02:48:11.216Z,96.2
2017-05-05T02:49:13.058Z,96.7
2017-05-05T02:50:14.899Z,95.7
2017-05-05T02:51:16.766Z,95
2017-05-05T02:52:18.603Z,94.7
2017-05-05T02:53:20.444Z,94.6
2017-05-05T02:54:22.283Z,94.7
2017-05-05T02:55:24.136Z,94.9
2017-05-05T02:56:25.977Z,94.9
2017-05-05T02:57:27.819Z,95.3
2017-05-05T02:58:29.994Z,95.7
2017-05-05T02:59:31.839Z,96.3
2017-05-05T03:00:33.683Z,96.8
2017-05-05T03:01:35.524Z,96.7
2017-05-05T03:02:37.700Z,96.6
2017-05-05T03:03:39.891Z,96.7
2017-05-05T03:04:41.727Z,96.4
2017-05-05T03:05:43.563Z,96.6
2017-05-05T03:06:45.407Z,96.4
2017-05-05T03:07:47.252Z,96.5
2017-05-05T03:08:49.433Z,96.5
2017-05-05T03:09:51.273Z,96.3
2017-05-05T03:10:53.115Z,96.2
2017-05-05T03:11:54.958Z,95.8
2017-05-05T03:12:56.801Z,95.6
2017-05-05T03:13:58.646Z,95
2017-05-05T03:15:00.825Z,95.7
2017-05-05T03:16:02.660Z,95.9
2017-05-05T03:17:04.498Z,96.3
2017-05-05T03:18:06.333Z,95.9
2017-05-05T03:19:08.173Z,95.3
2017-05-05T03:20:10.015Z,95.5
2017-05-05T03:21:11.861Z,96.1
2017-05-05T03:22:14.042Z,96.2
2017-05-05T03:23:15.884Z,97
2017-05-05T03:24:17.758Z,96.8
2017-05-05T03:25:19.604Z,96.7
2017-05-05T03:26:21.445Z,96.3
2017-05-05T03:27:23.289Z,95.7
2017-05-05T03:28:25.129Z,95.8
2017-05-05T03:29:26.973Z,95.9
2017-05-05T03:30:28.822Z,96
2017-05-05T03:31:30.657Z,95.4
2017-05-05T03:32:32.500Z,95.3
2017-05-05T03:33:34.685Z,95.2
2017-05-05T03:34:36.527Z,95.8
2017-05-05T03:35:38.368Z,96.2
2017-05-05T03:36:40.212Z,96.2
2017-05-05T03:37:42.049Z,96.2
2017-05-05T03:38:43.898Z,96.6
2017-05-05T03:39:45.747Z,96.6
2017-05-05T03:40:47.589Z,96.3
2017-05-05T03:41:49.434Z,96.8
2017-05-05T03:42:51.273Z,96.5
2017-05-05T03:43:53.110Z,96.8
2017-05-05T03:44:54.956Z,96.9
2017-05-05T03:45:56.794Z,96.9
2017-05-05T03:46:58.644Z,95.9
2017-05-05T03:48:00.488Z,95.8
2017-05-05T03:49:02.328Z,95.9
2017-05-05T03:50:04.167Z,96.4
2017-05-05T03:51:06.006Z,96.5
2017-05-05T03:52:07.848Z,96.6
2017-05-05T03:53:09.680Z,96.8
2017-05-05T03:54:11.524Z,96.1
2017-05-05T03:55:13.364Z,95.6
2017-05-05T03:56:15.210Z,95.7
2017-05-05T03:57:17.050Z,96.1
2017-05-05T03:58:18.889Z,96.2
2017-05-05T03:59:21.076Z,96.5
2017-05-05T04:00:23.261Z,96.6
2017-05-05T04:01:25.104Z,97
2017-05-05T04:02:26.949Z,96.8
2017-05-05T04:03:29.139Z,96.4
2017-05-05T04:04:30.970Z,96.5
2017-05-05T04:05:32.811Z,96.4
2017-05-05T04:06:35.002Z,96.1
2017-05-05T04:07:36.838Z,95.6
2017-05-05T04:08:39.025Z,95.8
2017-05-05T04:09:40.873Z,95.7
2017-05-05T04:10:43.053Z,96.3
2017-05-05T04:11:44.902Z,96.5
2017-05-05T04:12:47.081Z,96
2017-05-05T04:13:48.923Z,95.8
2017-05-05T04:14:50.762Z,96.1
2017-05-05T04:15:52.605Z,95.8
2017-05-05T04:16:54.437Z,95.2
2017-05-05T04:17:56.284Z,96.1
2017-05-05T04:18:58.129Z,96.3
2017-05-05T04:19:59.976Z,96.5
2017-05-05T04:21:01.820Z,96.6
2017-05-05T04:22:03.652Z,96.4
2017-05-05T04:23:05.490Z,96.4
2017-05-05T04:24:07.336Z,96.2
2017-05-05T04:25:09.176Z,95.9
2017-05-05T04:26:11.015Z,95.3
2017-05-05T04:27:12.851Z,95.5
2017-05-05T04:28:14.693Z,95.3
2017-05-05T04:29:16.530Z,95.4
2017-05-05T04:30:18.369Z,95.8
2017-05-05T04:31:20.214Z,96.1
2017-05-05T04:32:22.057Z,95.9
2017-05-05T04:33:24.581Z,95.8
2017-05-05T04:34:26.756Z,95.8
2017-05-05T04:35:28.598Z,95.4
2017-05-05T04:36:30.442Z,94.9
2017-05-05T04:37:32.620Z,95.7
2017-05-05T04:38:34.820Z,96.1
2017-05-05T04:39:36.658Z,96.7
2017-05-05T04:40:38.507Z,95.9
2017-05-05T04:41:40.346Z,95.5
2017-05-05T04:42:42.187Z,95.7
2017-05-05T04:43:44.033Z,96.1
2017-05-05T04:44:46.219Z,96.3
2017-05-05T04:45:48.073Z,96.4
2017-05-05T04:46:49.916Z,96.7
2017-05-05T04:47:51.758Z,96.2
2017-05-05T04:48:53.605Z,95.9
2017-05-05T04:49:55.796Z,95.7
2017-05-05T04:50:57.982Z,96.4
2017-05-05T04:51:59.821Z,96.3
2017-05-05T04:53:01.666Z,96.5
2017-05-05T04:54:03.519Z,96.6
2017-05-05T04:55:05.359Z,97.4
2017-05-05T04:56:07.207Z,96.6
2017-05-05T04:57:09.048Z,95.8
2017-05-05T04:58:10.890Z,95.6
2017-05-05T04:59:12.729Z,95.5
2017-05-05T05:00:14.560Z,95.6
2017-05-05T05:01:16.407Z,95.8
2017-05-05T05:02:18.261Z,96.6
2017-05-05T05:03:20.099Z,96.8
2017-05-05T05:04:21.949Z,97.1
2017-05-05T05:05:23.788Z,96.9
2017-05-05T05:06:25.622Z,96.6
2017-05-05T05:07:27.466Z,96.3
2017-05-05T05:08:29.308Z,95.7
2017-05-05T05:09:31.154Z,96.3
2017-05-05T05:10:33.029Z,96.6
2017-05-05T05:11:35.645Z,96.5
2017-05-05T05:12:37.501Z,96.5
2017-05-05T05:13:39.339Z,96.4
2017-05-05T05:14:41.180Z,95.9
2017-05-05T05:15:43.034Z,95.3
2017-05-05T05:16:44.877Z,95.3
2017-05-05T05:17:46.736Z,95.7
2017-05-05T05:18:48.607Z,95.3
2017-05-05T05:19:50.449Z,95.3
2017-05-05T05:20:52.339Z,95.7
2017-05-05T05:21:54.195Z,95.6
2017-05-05T05:22:56.069Z,95.5
2017-05-05T05:23:57.931Z,94.7
2017-05-05T05:24:59.785Z,94.4
2017-05-05T05:26:01.639Z,94.6
2017-05-05T05:27:03.537Z,94.9
2017-05-05T05:28:05.715Z,95.4
2017-05-05T05:29:07.590Z,95.8
2017-05-05T05:30:09.802Z,96.2
2017-05-05T05:31:11.673Z,96.1
2017-05-05T05:32:13.521Z,95.6
2017-05-05T05:33:15.377Z,94.9
2017-05-05T05:34:17.933Z,95.6
2017-05-05T05:35:19.806Z,95.1
2017-05-05T05:36:21.642Z,94.8
2017-05-05T05:37:23.487Z,94.8
2017-05-05T05:38:25.344Z,94.9
2017-05-05T05:39:27.196Z,95.5
2017-05-05T05:40:29.073Z,95.8
2017-05-05T05:41:30.924Z,95.4
2017-05-05T05:42:32.770Z,95.6
2017-05-05T05:43:34.978Z,95.6
2017-05-05T05:44:36.848Z,95.4
2017-05-05T05:45:38.687Z,95.8
2017-05-05T05:46:40.534Z,96.4
2017-05-05T05:47:42.373Z,96.1
2017-05-05T05:48:44.562Z,95.9
2017-05-05T05:49:46.400Z,95.4
2017-05-05T05:50:48.579Z,95
2017-05-05T05:51:50.433Z,95.9
2017-05-05T05:52:52.618Z,95.4
2017-05-05T05:53:54.463Z,95
2017-05-05T05:54:56.314Z,95.1
2017-05-05T05:55:58.149Z,94.9
2017-05-05T05:57:00.037Z,94.7
2017-05-05T05:58:01.883Z,95.2
2017-05-05T05:59:03.761Z,95.2
2017-05-05T06:00:05.615Z,95.3
2017-05-05T06:01:07.461Z,95.2
2017-05-05T06:02:09.360Z,95.9
2017-05-05T06:03:11.194Z,96
2017-05-05T06:04:13.052Z,95.3
2017-05-05T06:05:15.222Z,94.7
2017-05-05T06:06:17.083Z,94.7
2017-05-05T06:07:18.925Z,95
2017-05-05T06:08:20.774Z,96.1
2017-05-05T06:09:22.626Z,95.9
2017-05-05T06:10:24.468Z,95.9
2017-05-05T06:11:26.651Z,95.5
2017-05-05T06:12:28.851Z,94.4
2017-05-05T06:13:30.689Z,94.9
2017-05-05T06:14:32.539Z,95
2017-05-05T06:15:34.383Z,94.9
2017-05-05T06:16:36.224Z,94.6
2017-05-05T06:17:38.071Z,95.1
2017-05-05T06:18:39.938Z,95.9
2017-05-05T06:19:41.776Z,95.2
2017-05-05T06:20:43.630Z,94.8
2017-05-05T06:21:45.472Z,94.3
2017-05-05T06:22:47.649Z,94.7
2017-05-05T06:23:49.509Z,95.4
2017-05-05T06:24:51.378Z,95.6
2017-05-05T06:25:53.225Z,94.9
2017-05-05T06:26:55.064Z,95
2017-05-05T06:27:56.905Z,95.4
2017-05-05T06:28:58.742Z,95.7
2017-05-05T06:30:00.602Z,96
2017-05-05T06:31:03.126Z,94.9
2017-05-05T06:32:04.966Z,94.7
2017-05-05T06:33:06.813Z,94.7
2017-05-05T06:34:08.989Z,94.6
2017-05-05T06:35:10.835Z,95.3
2017-05-05T06:36:12.678Z,96.5
2017-05-05T06:37:14.535Z,96.9
2017-05-05T06:38:16.372Z,96.6
2017-05-05T06:39:18.552Z,96.3
2017-05-05T06:40:20.392Z,95.5
2017-05-05T06:41:22.228Z,95.5
2017-05-05T06:42:24.083Z,95.5
2017-05-05T06:43:25.925Z,95.9
2017-05-05T06:44:27.762Z,95.5
2017-05-05T06:45:29.617Z,95
2017-05-05T06:46:31.446Z,95.1
2017-05-05T06:47:33.289Z,95.8
2017-05-05T06:48:35.135Z,96.3
2017-05-05T06:49:36.985Z,96
2017-05-05T06:50:38.820Z,95.8
2017-05-05T06:51:40.659Z,95.4
2017-05-05T06:52:42.504Z,95
2017-05-05T06:53:44.344Z,94.4
2017-05-05T06:54:46.204Z,94.9
2017-05-05T06:55:48.046Z,94.9
2017-05-05T06:56:49.891Z,94.7
2017-05-05T06:57:51.727Z,94.9
2017-05-05T06:58:53.572Z,94.5
2017-05-05T06:59:55.414Z,94.4
2017-05-05T07:00:57.293Z,95
2017-05-05T07:01:59.131Z,95
2017-05-05T07:03:00.964Z,94.5
2017-05-05T07:04:02.804Z,94.5
2017-05-05T07:05:04.647Z,94.2
2017-05-05T07:06:06.485Z,94.2
2017-05-05T07:07:08.331Z,94.8
2017-05-05T07:08:10.169Z,95.4
2017-05-05T07:09:12.352Z,94.9
2017-05-05T07:10:14.194Z,95.7
2017-05-05T07:11:16.034Z,95.8
2017-05-05T07:12:17.877Z,95.2
2017-05-05T07:13:19.721Z,95
2017-05-05T07:14:21.562Z,94.7
2017-05-05T07:15:23.400Z,94.4
2017-05-05T07:16:25.263Z,94.6
2017-05-05T07:17:27.110Z,94.9
2017-05-05T07:18:28.953Z,94.6
2017-05-05T07:19:30.828Z,94.7
2017-05-05T07:20:32.676Z,94.8
2017-05-05T07:21:34.539Z,94.6
2017-05-05T07:22:36.381Z,94.3
2017-05-05T07:23:38.220Z,93.7
2017-05-05T07:24:40.056Z,93.9
2017-05-05T07:25:41.902Z,94.3
2017-05-05T07:26:43.756Z,94.2
2017-05-05T07:27:45.937Z,94.6
2017-05-05T07:28:47.804Z,95
2017-05-05T07:29:49.658Z,94.6
2017-05-05T07:30:51.856Z,95.2
2017-05-05T07:31:53.698Z,94.6
2017-05-05T07:32:55.540Z,94.3
2017-05-05T07:33:57.720Z,94.2
2017-05-05T07:34:59.915Z,93.7
2017-05-05T07:36:01.749Z,94.3
2017-05-05T07:37:03.599Z,94.5
2017-05-05T07:38:05.801Z,94.1
2017-05-05T07:39:07.640Z,94.1
2017-05-05T07:40:09.482Z,93.9
2017-05-05T07:41:11.325Z,94.2
2017-05-05T07:42:13.519Z,94.3
2017-05-05T07:43:15.363Z,94.5
2017-05-05T07:44:17.197Z,94.6
2017-05-05T07:45:19.379Z,94.7
2017-05-05T07:46:21.221Z,94.6
2017-05-05T07:47:23.069Z,94.6
2017-05-05T07:48:24.910Z,94.1
2017-05-05T07:49:26.751Z,93.7
2017-05-05T07:50:28.589Z,94.6
2017-05-05T07:51:30.438Z,94.1
2017-05-05T07:52:32.613Z,94.4
2017-05-05T07:53:34.461Z,94.3
2017-05-05T07:54:36.305Z,94.7
2017-05-05T07:55:38.492Z,93.8
2017-05-05T07:56:40.334Z,94.1
2017-05-05T07:57:42.179Z,93.9
2017-05-05T07:58:44.364Z,94.2
2017-05-05T07:59:46.236Z,94.1
2017-05-05T08:00:48.073Z,94
2017-05-05T08:01:49.926Z,94.3
2017-05-05T08:02:52.103Z,94.9
2017-05-05T08:03:53.959Z,94.4
2017-05-05T08:04:56.137Z,94.1
2017-05-05T08:05:57.991Z,94.2
2017-05-05T08:06:59.828Z,93.7
2017-05-05T08:08:01.669Z,93.7
2017-05-05T08:09:03.516Z,93.9
2017-05-05T08:10:05.358Z,94.3
2017-05-05T08:11:07.197Z,94
2017-05-05T08:12:09.045Z,94.1
2017-05-05T08:13:10.884Z,93.9
2017-05-05T08:14:12.723Z,93.9
2017-05-05T08:15:14.559Z,94
2017-05-05T08:16:16.400Z,93.9
2017-05-05T08:17:18.246Z,94.2
2017-05-05T08:18:20.083Z,94.2
2017-05-05T08:19:21.938Z,94.5
2017-05-05T08:20:24.146Z,94.5
2017-05-05T08:21:25.985Z,93.7
2017-05-05T08:22:27.831Z,93.7
2017-05-05T08:23:29.682Z,93.6
2017-05-05T08:24:31.521Z,94.4
2017-05-05T08:25:33.360Z,94.4
2017-05-05T08:26:35.198Z,94.5
2017-05-05T08:27:37.039Z,94.8
2017-05-05T08:28:38.888Z,94.4
2017-05-05T08:29:41.079Z,94.4
2017-05-05T08:30:42.931Z,94.5
2017-05-05T08:31:44.781Z,94.4
2017-05-05T08:32:46.621Z,94
2017-05-05T08:33:48.809Z,94.5
2017-05-05T08:34:50.650Z,95
2017-05-05T08:35:52.491Z,94.9
2017-05-05T08:36:54.338Z,94.8
2017-05-05T08:37:56.524Z,95.1
2017-05-05T08:38:58.371Z,95.1
2017-05-05T08:40:00.224Z,95.3
2017-05-05T08:41:02.073Z,95.2
2017-05-05T08:42:03.910Z,95
2017-05-05T08:43:05.751Z,95
2017-05-05T08:44:07.601Z,94.5
2017-05-05T08:45:09.444Z,94.1
2017-05-05T08:46:11.283Z,94.3
2017-05-05T08:47:13.128Z,94.2
2017-05-05T08:48:14.966Z,94
2017-05-05T08:49:16.812Z,93.4
2017-05-05T08:50:18.665Z,93.8
2017-05-05T08:51:20.502Z,94.2
2017-05-05T08:52:22.357Z,95.1
2017-05-05T08:53:24.210Z,95
2017-05-05T08:54:26.055Z,94.9
2017-05-05T08:55:27.918Z,94.2
2017-05-05T08:56:29.760Z,93.9
2017-05-05T08:57:31.605Z,93.5
2017-05-05T08:58:33.451Z,93.5
2017-05-05T08:59:35.309Z,94.1
2017-05-05T09:00:37.505Z,94.6
2017-05-05T09:01:39.679Z,94.7
2017-05-05T09:02:41.861Z,94.3
2017-05-05T09:03:43.703Z,94.2
2017-05-05T09:04:45.544Z,93.7
2017-05-05T09:05:47.393Z,93.9
2017-05-05T09:06:49.225Z,94.1
2017-05-05T09:07:51.064Z,94.1
2017-05-05T09:08:52.906Z,94
2017-05-05T09:09:55.092Z,93.6
2017-05-05T09:10:56.941Z,93.2
2017-05-05T09:11:58.784Z,94.1
2017-05-05T09:13:00.627Z,94.9
2017-05-05T09:14:02.483Z,94.4
2017-05-05T09:15:04.317Z,94.1
2017-05-05T09:16:06.160Z,94.1
2017-05-05T09:17:08.001Z,94.2
2017-05-05T09:18:10.216Z,94.3
2017-05-05T09:19:12.054Z,93.8
2017-05-05T09:20:13.894Z,93.6
2017-05-05T09:21:15.731Z,94.4
2017-05-05T09:22:17.569Z,94.4
2017-05-05T09:23:19.415Z,93.9
2017-05-05T09:24:21.255Z,93.5
2017-05-05T09:25:23.091Z,93
2017-05-05T09:26:24.948Z,93.2
2017-05-05T09:27:27.127Z,93.5
2017-05-05T09:28:28.970Z,93.8
2017-05-05T09:29:30.806Z,93.3
2017-05-05T09:30:32.660Z,93
2017-05-05T09:31:34.544Z,92.5
2017-05-05T09:32:36.386Z,92.4
2017-05-05T09:33:38.237Z,92.1
2017-05-05T09:34:40.086Z,92.6
2017-05-05T09:35:42.273Z,92.9
2017-05-05T09:36:44.116Z,92.6
2017-05-05T09:37:45.957Z,93
2017-05-05T09:38:47.808Z,92.9
2017-05-05T09:39:49.661Z,93
2017-05-05T09:40:51.503Z,93.4
2017-05-05T09:41:53.345Z,92.9
2017-05-05T09:42:55.194Z,92.7
2017-05-05T09:43:57.376Z,93.3
2017-05-05T09:44:59.215Z,92.8
2017-05-05T09:46:01.061Z,92.4
2017-05-05T09:47:02.901Z,91.5
2017-05-05T09:48:05.081Z,91.7
2017-05-05T09:49:06.927Z,91.5
2017-05-05T09:50:08.768Z,92.4
2017-05-05T09:51:10.613Z,92.9
2017-05-05T09:52:12.449Z,93.2
2017-05-05T09:53:14.642Z,93
2017-05-05T09:54:16.482Z,93.1
2017-05-05T09:55:18.323Z,93.4
2017-05-05T09:56:20.163Z,92.7
2017-05-05T09:57:22.005Z,92.7
2017-05-05T09:58:24.196Z,93.5
2017-05-05T09:59:26.049Z,93.5
2017-05-05T10:00:27.893Z,93.6
2017-05-05T10:01:29.732Z,93.3
2017-05-05T10:02:31.571Z,93.1
2017-05-05T10:03:33.417Z,93.2
2017-05-05T10:04:35.267Z,93.6
2017-05-05T10:05:37.105Z,93
2017-05-05T10:06:38.946Z,92.9
2017-05-05T10:07:40.788Z,92.5
2017-05-05T10:08:42.631Z,93.2
2017-05-05T10:09:44.476Z,93.3
2017-05-05T10:10:46.320Z,93
2017-05-05T10:11:48.162Z,92.3
2017-05-05T10:12:50.010Z,91.5
2017-05-05T10:13:51.853Z,91.1
2017-05-05T10:14:53.698Z,92.1
2017-05-05T10:15:55.533Z,92.9
2017-05-05T10:16:57.717Z,92.5
2017-05-05T10:17:59.561Z,92.5
2017-05-05T10:19:01.401Z,92.9
2017-05-05T10:20:03.249Z,93
2017-05-05T10:21:05.442Z,92
2017-05-05T10:22:07.282Z,92
2017-05-05T10:23:09.128Z,92.3
2017-05-05T10:24:10.969Z,92.2
2017-05-05T10:25:13.156Z,93.2
2017-05-05T10:26:15.000Z,93.9
2017-05-05T10:27:16.846Z,93.4
2017-05-05T10:28:18.701Z,93.9
2017-05-05T10:29:20.905Z,93.4
2017-05-05T10:30:23.095Z,92.6
2017-05-05T10:31:24.942Z,92.2
2017-05-05T10:32:26.779Z,91.6
2017-05-05T10:33:28.971Z,92.3
2017-05-05T10:34:30.817Z,92.5
2017-05-05T10:35:32.658Z,92.4
2017-05-05T10:36:34.506Z,92
2017-05-05T10:37:36.343Z,92.9
2017-05-05T10:38:38.557Z,93
2017-05-05T10:39:40.402Z,93.2
2017-05-05T10:40:42.250Z,93.3
2017-05-05T10:41:44.101Z,93
2017-05-05T10:42:45.949Z,92.9
2017-05-05T10:43:47.792Z,92.6
2017-05-05T10:44:49.630Z,92.5
2017-05-05T10:45:51.478Z,92.6
2017-05-05T10:46:53.323Z,93
2017-05-05T10:47:55.168Z,92.5
2017-05-05T10:48:57.352Z,92.8
2017-05-05T10:49:59.198Z,93.2
2017-05-05T10:51:01.381Z,92.6
2017-05-05T10:52:03.224Z,92.3
2017-05-05T10:53:05.407Z,92.3
2017-05-05T10:54:07.925Z,91.8
2017-05-05T10:55:09.767Z,92.6
2017-05-05T10:56:11.608Z,92.7
2017-05-05T10:57:13.455Z,92.1
2017-05-05T10:58:15.643Z,92.6
2017-05-05T10:59:17.496Z,93.2
2017-05-05T11:00:19.339Z,93.5
2017-05-05T11:01:21.189Z,92.9
2017-05-05T11:02:23.039Z,92.6
2017-05-05T11:03:24.893Z,93
2017-05-05T11:04:27.420Z,92.8
2017-05-05T11:05:29.272Z,92.4
2017-05-05T11:06:31.462Z,91.7
2017-05-05T11:07:33.310Z,91.3
2017-05-05T11:08:35.175Z,92.1
2017-05-05T11:09:37.693Z,91.9
2017-05-05T11:10:39.879Z,91.6
2017-05-05T11:11:41.723Z,91.4
2017-05-05T11:12:43.579Z,91.5
2017-05-05T11:13:45.414Z,92.6
2017-05-05T11:14:47.263Z,92.4
2017-05-05T11:15:49.119Z,92.5
2017-05-05T11:16:50.968Z,92.3
2017-05-05T11:17:52.817Z,91.6
2017-05-05T11:18:54.658Z,90.7
2017-05-05T11:19:56.510Z,91.5
2017-05-05T11:20:58.353Z,91.6
2017-05-05T11:22:00.213Z,91.8
2017-05-05T11:23:02.063Z,91.8
2017-05-05T11:24:03.901Z,91.6
2017-05-05T11:25:05.752Z,91.8
2017-05-05T11:26:07.598Z,92.1
2017-05-05T11:27:09.444Z,91.5
2017-05-05T11:28:11.278Z,91.6
2017-05-05T11:29:13.120Z,92.1
2017-05-05T11:30:14.974Z,92.4
2017-05-05T11:31:16.830Z,92.8
2017-05-05T11:32:18.666Z,92.6
2017-05-05T11:33:20.857Z,92.5
2017-05-05T11:34:22.705Z,93.1
2017-05-05T11:35:24.552Z,92.2
2017-05-05T11:36:26.398Z,91.6
2017-05-05T11:37:28.242Z,91.9
2017-05-05T11:38:30.089Z,92.4
2017-05-05T11:39:32.270Z,91.7
2017-05-05T11:40:34.121Z,91.1
2017-05-05T11:41:35.961Z,91.7
2017-05-05T11:42:38.177Z,91.7
2017-05-05T11:43:40.029Z,91.6
2017-05-05T11:44:41.877Z,92.3
2017-05-05T11:45:43.724Z,92.7
2017-05-05T11:46:45.568Z,91.7
2017-05-05T11:47:47.419Z,91.7
2017-05-05T11:48:49.266Z,91.4
2017-05-05T11:49:51.109Z,91.3
2017-05-05T11:50:52.950Z,91.4
2017-05-05T11:51:54.796Z,91.9
2017-05-05T11:52:56.641Z,91.5
2017-05-05T11:53:58.492Z,92.1
2017-05-05T11:55:00.329Z,92.4
2017-05-05T11:56:02.179Z,92.2
2017-05-05T11:57:04.025Z,92.3
2017-05-05T11:58:06.219Z,91.9
2017-05-05T11:59:08.066Z,92.4
2017-05-05T12:00:09.905Z,92.9
2017-05-05T12:01:11.750Z,92.8
2017-05-05T12:02:13.595Z,92.1
2017-05-05T12:03:15.446Z,92.2
2017-05-05T12:04:17.294Z,92.5
2017-05-05T12:05:19.139Z,92.1
2017-05-05T12:06:21.317Z,91.9
2017-05-05T12:07:23.499Z,92.5
2017-05-05T12:08:25.341Z,92.2
2017-05-05T12:09:27.183Z,91.6
2017-05-05T12:10:29.033Z,91.7
2017-05-05T12:11:30.885Z,91
2017-05-05T12:12:32.735Z,91.4
2017-05-05T12:13:34.573Z,91.6
2017-05-05T12:14:49.135Z,91.2
2017-05-05T12:15:50.955Z,91.2
2017-05-05T12:16:52.767Z,91.4
2017-05-05T12:17:54.589Z,91.4
2017-05-05T12:18:56.763Z,91
2017-05-05T12:19:58.596Z,91.5
2017-05-05T12:21:00.407Z,92.1
2017-05-05T12:22:02.233Z,91.5
2017-05-05T12:23:04.083Z,91.1
2017-05-05T12:24:05.895Z,90.3
2017-05-05T12:25:07.712Z,90.9
2017-05-05T12:26:09.530Z,91.6
2017-05-05T12:27:11.687Z,92.8
2017-05-05T12:28:13.514Z,92.2
2017-05-05T12:29:15.672Z,91.9
2017-05-05T12:30:17.483Z,92.4
2017-05-05T12:31:19.294Z,91.9
2017-05-05T12:32:21.118Z,91.6
2017-05-05T12:33:22.921Z,91.2
2017-05-05T12:34:24.740Z,90.9
2017-05-05T12:35:26.555Z,92.1
2017-05-05T12:36:28.369Z,93.3
2017-05-05T12:37:30.193Z,92.6
2017-05-05T12:38:32.001Z,91.9
2017-05-05T12:39:33.815Z,91
2017-05-05T12:40:35.621Z,91
2017-05-05T12:41:37.454Z,90.5
2017-05-05T12:42:39.605Z,90.4
2017-05-05T12:43:41.424Z,90.3
2017-05-05T12:45:43.402Z,90.5
2017-05-05T12:46:45.288Z,91.9
2017-05-05T12:47:47.536Z,92
2017-05-05T12:48:49.409Z,92.1
2017-05-05T12:49:51.289Z,92.3
2017-05-05T12:50:53.181Z,91.2
2017-05-05T12:51:55.086Z,91.7
2017-05-05T12:52:56.982Z,91.1
2017-05-05T12:53:59.196Z,91.2
2017-05-05T12:55:01.083Z,91.2
2017-05-05T12:56:02.982Z,90.9
2017-05-05T12:57:04.849Z,91.1
2017-05-05T12:58:06.737Z,90.9
2017-05-05T12:59:08.621Z,90.7
2017-05-05T13:00:10.514Z,89.9
2017-05-05T13:01:12.388Z,90.3
2017-05-05T13:02:14.294Z,90.3
2017-05-05T13:03:16.177Z,90
2017-05-05T13:04:18.056Z,90.2
2017-05-05T13:05:19.950Z,90.1
2017-05-05T13:06:21.833Z,89.8
2017-05-05T13:07:23.711Z,90.2
2017-05-05T13:08:25.619Z,91
2017-05-05T13:09:27.493Z,91
2017-05-05T13:10:29.375Z,91
2017-05-05T13:11:31.582Z,91
2017-05-05T13:12:33.466Z,90.8
2017-05-05T13:13:35.351Z,90.4
2017-05-05T13:14:37.243Z,89.5
2017-05-05T13:15:39.143Z,89.9
2017-05-05T13:16:41.011Z,89.7
2017-05-05T13:17:42.909Z,90.7
2017-05-05T13:18:44.799Z,90
2017-05-05T13:19:46.675Z,89.4
2017-05-05T13:20:48.564Z,90
2017-05-05T13:21:50.801Z,90.6
2017-05-05T13:22:52.685Z,90.8
2017-05-05T13:23:54.571Z,90.5
2017-05-05T13:24:56.464Z,90.1
2017-05-05T13:25:58.337Z,90.8
2017-05-05T13:27:00.230Z,91.5
2017-05-05T13:28:02.113Z,91.2
2017-05-05T13:29:04.024Z,90.8
2017-05-05T13:30:05.902Z,91.4
2017-05-05T13:31:07.802Z,91.5
2017-05-05T13:32:10.024Z,91.9
2017-05-05T13:33:12.261Z,91.8
2017-05-05T13:34:14.134Z,91.4
2017-05-05T13:35:16.010Z,90.6
2017-05-05T13:36:17.886Z,90.7
2017-05-05T13:37:19.777Z,90.1
2017-05-05T13:38:21.659Z,89.5
2017-05-05T13:39:23.537Z,90
2017-05-05T13:40:25.406Z,91
2017-05-05T13:41:27.289Z,91.9
2017-05-05T13:42:29.187Z,90.6
2017-05-05T13:43:31.069Z,89.8
2017-05-05T13:44:32.937Z,90
2017-05-05T13:45:34.822Z,90.7
2017-05-05T13:46:37.058Z,90.5
2017-05-05T13:47:39.287Z,91.4
2017-05-05T13:48:41.166Z,90.9
2017-05-05T13:49:43.041Z,91.1